Flight Track Log - Related Links

Times and Time Zones

All times are in EDT time to prevent confusion due to time zone crossing. See the N137TK flight status page for this flight to view local times or setup timezone preferences in your user account.

Time Position Orientation Groundspeed Altitude Reporting Facility
EDT Latitude Longitude Course Direction KTS MPH feet Rate Location/Type
Fri 07:39:00 AM 26.2731 -81.8422 North 184 212 5,500  Level Miami Center
Fri 07:40:00 AM 26.3211 -81.8464 356° North 173 199 7,600 1,950 Climbing Miami Center
Fri 07:41:00 AM 26.3711 -81.8508 355° North 173 199 9,400 1,850 Climbing Miami Center
Fri 07:42:00 AM 26.5465 -81.6362 347° North  Level Estimated
Fri 07:42:00 AM 26.4211 -81.8531 358° North 178 205 11,300  Level Miami Center
Fri 07:43:00 AM 26.6122 -81.6129 North  Level Estimated
Fri 07:43:00 AM 26.4736 -81.8414 11° North 178 205 13,300  Level Miami Center
Fri 07:44:00 AM 26.5325 -81.8300 10° North 191 220 14,000 450 Climbing Miami Center
Fri 07:45:00 AM 26.6042 -81.8097 14° North 224 258 14,200 1,200 Climbing Miami Center
Fri 07:46:00 AM 26.6669 -81.8008 North 235 270 16,400 1,900 Climbing Miami Center
Fri 07:47:00 AM 26.7197 -81.7844 16° North 218 251 18,000 1,500 Climbing Miami Center
Fri 07:48:00 AM 26.7661 -81.7725 13° North 187 215 19,400 1,350 Climbing Miami Center
Fri 07:49:00 AM 26.8144 -81.7606 12° North 174 200 20,700 1,300 Climbing Miami Center
Fri 07:50:00 AM 26.8608 -81.7483 13° North 174 200 22,000 1,250 Climbing Miami Center
Fri 07:51:00 AM 26.9072 -81.7386 11° North 169 194 23,200 1,150 Climbing Miami Center
Fri 07:52:00 AM 26.9533 -81.7267 13° North 163 188 24,300 900 Climbing Miami Center
Fri 07:53:00 AM 26.9997 -81.7147 13° North 163 188 25,000 350 Climbing Miami Center
Fri 07:54:00 AM 27.0544 -81.7006 13° North 186 214 25,000  Level Miami Center
Fri 07:55:00 AM 27.1178 -81.6847 13° North 214 246 25,000  Level Miami Center
Fri 07:56:00 AM 27.1892 -81.6689 11° North 230 265 25,000  Level Miami Center
Fri 07:57:00 AM 27.2564 -81.6531 12° North 241 277 25,000  Level Miami Center
Fri 07:58:00 AM 27.3239 -81.6372 12° North 241 277 25,000  Level Miami Center
Fri 07:59:00 AM 27.3850 -81.6208 13° North 241 277 25,000  Level Miami Center
Fri 08:00:00 AM 27.4522 -81.6050 12° North 241 277 25,000  Level Miami Center
Fri 08:01:00 AM 27.5278 -81.5872 12° North 241 277 25,000  Level Miami Center
Fri 08:02:00 AM 27.5953 -81.5689 14° North 241 277 25,000  Level Miami Center
Fri 08:03:00 AM 27.6625 -81.5528 12° North 241 277 25,000  Level Miami Center
Fri 08:04:00 AM 27.7236 -81.5367 13° North 241 277 25,000  Level Miami Center
Fri 08:05:00 AM 27.7931 -81.5231 10° North 241 277 25,000  Level Miami Center
Fri 08:06:00 AM 27.8603 -81.5047 14° North 241 277 25,000  Level Miami Center
Fri 08:07:00 AM 27.9275 -81.4886 12° North 241 277 25,000  Level Miami Center
Fri 08:08:00 AM 27.9950 -81.4725 12° North 241 277 25,000  Level Miami Center
Fri 08:09:00 AM 28.0622 -81.4542 14° North 241 277 25,000  Level Miami Center
Fri 08:10:00 AM 28.1294 -81.4381 12° North 241 277 25,000  Level Miami Center
Fri 08:11:00 AM 28.1969 -81.4219 12° North 241 277 25,000  Level Miami Center
Fri 08:12:00 AM 28.2725 -81.4036 12° North 241 277 25,000  Level Miami Center
Fri 08:13:04 AM 28.3394 -81.3881 12° North 258 297 25,000  Level Jacksonville Center
Fri 08:14:04 AM 28.4058 -81.3703 13° North 258 297 25,000  Level Jacksonville Center
Fri 08:15:04 AM 28.4747 -81.3528 13° North 258 297 25,000  Level Jacksonville Center
Fri 08:16:04 AM 28.5411 -81.3328 15° North 258 297 25,000  Level Jacksonville Center
Fri 08:17:04 AM 28.6033 -81.2942 29° Northeast 253 291 25,000  Level Jacksonville Center
Fri 08:18:04 AM 28.6675 -81.2553 28° Northeast 253 291 25,000  Level Jacksonville Center
Fri 08:19:04 AM 28.7297 -81.2186 27° Northeast 253 291 25,000  Level Jacksonville Center
Fri 08:20:04 AM 28.7939 -81.1939 19° North 253 291 25,000  Level Jacksonville Center
Fri 08:21:04 AM 28.8631 -81.2069 351° North 243 280 25,000  Level Jacksonville Center
Fri 08:22:04 AM 28.9319 -81.2200 351° North 238 274 25,000  Level Jacksonville Center
Fri 08:23:04 AM 28.9992 -81.2356 349° North 238 274 25,000  Level Jacksonville Center
Fri 08:24:04 AM 29.0681 -81.2464 352° North 238 274 25,000  Level Jacksonville Center
Fri 08:25:04 AM 29.1369 -81.2522 356° North 238 274 25,000  Level Jacksonville Center
Fri 08:26:04 AM 29.2061 -81.2606 354° North 243 280 25,000  Level Jacksonville Center
Fri 08:27:04 AM 29.2750 -81.2642 357° North 243 280 25,000  Level Jacksonville Center
Fri 08:28:04 AM 29.3461 -81.2703 356° North 243 280 25,000  Level Jacksonville Center
Fri 08:29:04 AM 29.4169 -81.2786 354° North 248 285 25,000  Level Jacksonville Center
Fri 08:30:04 AM 29.4861 -81.2844 356° North 248 285 25,000  Level Jacksonville Center
Fri 08:31:04 AM 29.5550 -81.2906 356° North 253 291 25,000  Level Jacksonville Center
Fri 08:32:04 AM 29.6239 -81.2967 356° North 253 291 25,000  Level Jacksonville Center
Fri 08:33:04 AM 29.6950 -81.3003 357° North 253 291 25,000  Level Jacksonville Center
Fri 08:34:04 AM 29.7639 -81.3086 354° North 253 291 25,000  Level Jacksonville Center
Fri 08:35:04 AM 29.8331 -81.3147 356° North 253 291 25,000  Level Jacksonville Center
Fri 08:36:04 AM 29.9039 -81.3183 357° North 253 291 25,000  Level Jacksonville Center
Fri 08:37:04 AM 29.9731 -81.3269 354° North 253 291 25,000  Level Jacksonville Center
Fri 08:38:04 AM 30.0503 -81.3303 358° North 253 291 25,000  Level Jacksonville Center
Fri 08:39:04 AM 30.1214 -81.3364 356° North 253 291 25,000  Level Jacksonville Center
Fri 08:40:04 AM 30.1925 -81.3425 356° North 253 291 25,000  Level Jacksonville Center
Fri 08:41:04 AM 30.2614 -81.3511 354° North 253 291 25,000  Level Jacksonville Center
Fri 08:42:04 AM 30.3344 -81.3547 358° North 253 291 25,000  Level Jacksonville Center
Fri 08:43:04 AM 30.4033 -81.3608 356° North 253 291 25,000  Level Jacksonville Center
Fri 08:44:04 AM 30.4744 -81.3669 356° North 253 291 25,000  Level Jacksonville Center
Fri 08:45:04 AM 30.5456 -81.3753 354° North 253 291 25,000  Level Jacksonville Center
Fri 08:46:04 AM 30.6167 -81.3792 357° North 253 291 25,000  Level Jacksonville Center
Fri 08:47:04 AM 30.6856 -81.3878 354° North 253 291 25,000  Level Jacksonville Center
Fri 08:48:04 AM 30.7547 -81.3914 357° North 253 291 25,000  Level Jacksonville Center
Fri 08:49:04 AM 30.8236 -81.4000 354° North 253 291 25,000  Level Jacksonville Center
Fri 08:50:04 AM 30.8925 -81.4061 356° North 253 291 25,000  Level Jacksonville Center
Fri 08:51:04 AM 30.9636 -81.4122 356° North 253 291 25,000  Level Jacksonville Center
Fri 08:52:04 AM 31.0325 -81.4186 355° North 253 291 25,000  Level Jacksonville Center
Fri 08:53:04 AM 31.0994 -81.4247 356° North 253 291 25,000  Level Jacksonville Center
Fri 08:54:04 AM 31.1681 -81.3994 17° North 257 296 25,000  Level Jacksonville Center
Fri 08:55:04 AM 31.2303 -81.3522 33° Northeast 257 296 25,000  Level Jacksonville Center
Fri 08:56:04 AM 31.2922 -81.3000 36° Northeast 257 296 25,000  Level Jacksonville Center
Fri 08:57:04 AM 31.3481 -81.2531 36° Northeast 268 308 25,000  Level Jacksonville Center
Fri 08:58:04 AM 31.4183 -81.2006 33° Northeast 273 314 25,000  Level Jacksonville Center
Fri 08:59:04 AM 31.4742 -81.1583 33° Northeast 268 308 25,000  Level Jacksonville Center
Fri 09:00:04 AM 31.5442 -81.1058 33° Northeast 268 308 25,000  Level Jacksonville Center
Fri 09:01:04 AM 31.6083 -81.0556 34° Northeast 268 308 25,000  Level Jacksonville Center
Fri 09:02:04 AM 31.6619 -81.0131 34° Northeast 268 308 25,000  Level Jacksonville Center
Fri 09:03:04 AM 31.7322 -80.9581 34° Northeast 268 308 25,000  Level Jacksonville Center
Fri 09:04:04 AM 31.7961 -80.9103 32° Northeast 268 308 25,000  Level Jacksonville Center
Fri 09:05:04 AM 31.8581 -80.8625 33° Northeast 268 308 25,000  Level Jacksonville Center
Fri 09:06:04 AM 31.9197 -80.8144 33° Northeast 268 308 25,000  Level Jacksonville Center
Fri 09:07:04 AM 31.9775 -80.7692 34° Northeast 268 308 25,000  Level Jacksonville Center
Fri 09:08:04 AM 32.0456 -80.7136 35° Northeast 268 308 25,000  Level Jacksonville Center
Fri 09:09:04 AM 32.1072 -80.6681 32° Northeast 268 308 25,000  Level Jacksonville Center
Fri 09:10:04 AM 32.1669 -80.6175 36° Northeast 268 308 25,000  Level Jacksonville Center
Fri 09:11:04 AM 32.2286 -80.5669 35° Northeast 258 297 25,000  Level Jacksonville Center
Fri 09:12:04 AM 32.2906 -80.5211 32° Northeast 258 297 25,000  Level Jacksonville Center
Fri 09:13:04 AM 32.3522 -80.4728 34° Northeast 258 297 25,000  Level Jacksonville Center
Fri 09:14:04 AM 32.4158 -80.4242 33° Northeast 263 303 25,000  Level Jacksonville Center
Fri 09:15:04 AM 32.4756 -80.3733 36° Northeast 258 297 25,000  Level Jacksonville Center
Fri 09:16:04 AM 32.5372 -80.3250 33° Northeast 258 297 25,000  Level Jacksonville Center
Fri 09:17:04 AM 32.5989 -80.2764 34° Northeast 258 297 25,000  Level Jacksonville Center
Fri 09:18:04 AM 32.6603 -80.2275 34° Northeast 258 297 25,000  Level Jacksonville Center
Fri 09:19:04 AM 32.7158 -80.1817 35° Northeast 258 297 25,000  Level Jacksonville Center
Fri 09:20:04 AM 32.7772 -80.1303 35° Northeast 258 297 25,000  Level Jacksonville Center
Fri 09:21:04 AM 32.8408 -80.0814 33° Northeast 258 297 25,000  Level Jacksonville Center
Fri 09:22:04 AM 32.9025 -80.0300 35° Northeast 258 297 25,000  Level Jacksonville Center
Fri 09:23:04 AM 32.9658 -79.9808 33° Northeast 258 297 25,000  Level Jacksonville Center
Fri 09:24:04 AM 33.0275 -79.9319 34° Northeast 258 297 25,000  Level Jacksonville Center
Fri 09:25:04 AM 33.0908 -79.8828 33° Northeast 258 297 25,000  Level Jacksonville Center
Fri 09:26:04 AM 33.1544 -79.8358 32° Northeast 258 297 25,000  Level Jacksonville Center
Fri 09:27:04 AM 33.2158 -79.7867 34° Northeast 263 303 25,000  Level Jacksonville Center
Fri 09:28:04 AM 33.2814 -79.7347 34° Northeast 263 303 25,000  Level Jacksonville Center
Fri 09:29:04 AM 33.3428 -79.6853 34° Northeast 263 303 25,000 -500 Level Jacksonville Center
Fri 09:30:04 AM 33.4125 -79.6306 33° Northeast 275 316 24,000 -500 Descending Jacksonville Center
Fri 09:31:04 AM 33.4800 -79.5781 33° Northeast 280 322 24,000  Level Jacksonville Center
Fri 09:32:04 AM 33.5433 -79.5283 33° Northeast 280 322 24,000  Level Jacksonville Center
Fri 09:33:04 AM 33.6067 -79.4761 34° Northeast 274 315 24,000 -400 Level Jacksonville Center
Fri 09:34:04 AM 33.6719 -79.4261 33° Northeast 274 315 23,200 -950 Descending Jacksonville Center
Fri 09:35:04 AM 33.7394 -79.3736 33° Northeast 274 315 22,100 -1,050 Descending Jacksonville Center
Fri 09:36:04 AM 33.8086 -79.3158 35° Northeast 284 327 21,100 -1,000 Descending Jacksonville Center
Fri 09:37:04 AM 33.8822 -79.2578 33° Northeast 296 341 20,100 -1,150 Descending Jacksonville Center
Fri 09:38:04 AM 33.9556 -79.1972 34° Northeast 308 354 18,800 -1,250 Descending Jacksonville Center
Fri 09:39:04 AM 34.0311 -79.1414 31° Northeast 308 354 17,600 -1,309 Descending Jacksonville Center
Fri 09:40:49 AM 34.1619 -79.0328 34° Northeast 324 373 15,200 -1,399 Descending Washington Center
Fri 09:41:47 AM 34.2325 -78.9753 34° Northeast 318 366 13,800 -1,311 Descending Washington Center
Fri 09:42:48 AM 34.3072 -78.9156 33° Northeast 313 360 12,600 -1,180 Descending Washington Center
Fri 09:43:49 AM 34.3669 -78.8653 35° Northeast 307 353 11,400 -1,059 Descending Washington Center
Fri 09:44:47 AM 34.4436 -78.8078 32° Northeast 294 338 10,500 -1,109 Descending Washington Center
Fri 09:45:48 AM 34.5094 -78.7700 25° Northeast 286 329 9,200 -1,426 Descending Washington Center
Fri 09:46:49 AM 34.5858 -78.7225 27° Northeast 281 323 7,600 -1,388 Descending Washington Center
Fri 09:47:49 AM 34.6453 -78.6819 29° Northeast 281 323 6,400 -1,373 Descending Washington Center
Fri 09:48:47 AM 34.7131 -78.6417 26° Northeast 255 293 4,900 -1,373 Descending Washington Center
Fri 09:49:47 AM 34.7658 -78.6108 26° Northeast 233 268 3,700 -942 Descending Washington Center
Fri 09:50:48 AM 34.8147 -78.5772 29° Northeast 212 244 3,000 -595 Descending Washington Center
Fri 09:51:48 AM 34.8594 -78.5433 32° Northeast 194 223 2,500 -500 Descending Washington Center

Login

Don't have an account? Register now (free) for customized features, flight alerts, and more!